Airfield :
LOGIN :

Register | Disclaimer

   EN    FR    IT 

 










Legend :    VFR   Marginal VFR   IFR   Intensive IFR   Very Intensive IFR
Visi :
Ceiling :
>= 8 km
>= 3000ft
5 to 8 km
1000 to 3000 ft
1500m to 5 km
500 to 1000 ft
800 to 1500m
200 to 500 ft
< 800m
< 200 ft
Symbols :   Thunderstorms  Fog  Heavy snow  Heavy precipitations  Wind > 20 kt
SIGMETs :     Misc.  Thunderstorms  Icing  Turbulence  Mountain Waves  Volcanic Ashes






- Airport Elevation : 427 ft
- IATA code : KBP


UKBB - Boryspil'

CURRENT METAR :
  • 280330Z 01002MPS 0800 0500NW R36R/P2000N R36L/1300D PRFG VV002 05/05 Q1024 R88/CLRD// TEMPO 0300 FG VV002

EXPIRED METARs :
  • 280300Z 01003MPS 6000 0800NW R36R/P2000N R36L/1900U PRFG SCT002 03/03 Q1024 R88/CLRD// TEMPO 0300 FG VV002
  • 280230Z 01003MPS 8000 0600NW R36R/P2000N R36L/P2000N PRFG NSC 03/03 Q1024 R88/CLRD// TEMPO 0300 FG VV002
  • 280200Z 01003MPS 9000 BR NSC 02/02 Q1023 R88/D TEMPO 0300 FG VV002
  • 280130Z VRB01MPS 9000 0900NW R36R/P2000N R36L/1300D PRFG NSC 03/03 Q1023 R88/D TEMPO 0300 FG
  • 280100Z 30002MPS 230V330 9000 2100SW BR NSC 04/04 Q1023 R88/CLRD// TEMPO 0300 FG
  • 280030Z 36003MPS 9000 1300NW R36R/P2000N R36L/P2000N BR NSC 05/05 Q1023 R88/CLRD// TEMPO 0300 FG

TAF AMD TAF UKBB
Valid from the 28 at 03:00 until the 29 at 00:00 UTC


280332Z 2803/2824 36003MPS 0300 FG VV002
TEMPO 2803/2806 1000 BR BKN003
BECMG 2806/2808 03005G10MPS 9999 NSW BKN020



MET'MAP, your aeronautical weather chart ! - Copyright ORBIFLY December 2007 - Disclaimer

ORBIFLY MET'MAP TEAM :

Programming & Development : Alexandra Zaïnal
Concept & original design : Baudouin d'Aumeries
Assistance for programming : Marc-Olivier Méhu
Technical & hardware support : Manuel Goepfert

Contact : metmap@orbifly.com




SOURCES & CREDITS :

   NOAA